sensor_id;sensor_type;location;lat;lon;timestamp;pressure;altitude;pressure_sealevel;temperature;humidity
21203;BME280;10759;51.982;9.232;2023-04-19T00:01:41;101562.16;;;10.20;67.73
21203;BME280;10759;51.982;9.232;2023-04-19T00:04:11;101563.72;;;10.33;68.00
21203;BME280;10759;51.982;9.232;2023-04-19T00:06:41;101572.00;;;10.19;68.12
21203;BME280;10759;51.982;9.232;2023-04-19T00:09:09;101538.13;;;10.15;67.57
21203;BME280;10759;51.982;9.232;2023-04-19T00:11:37;101525.44;;;10.26;66.44
21203;BME280;10759;51.982;9.232;2023-04-19T00:14:04;101543.22;;;10.30;66.91
21203;BME280;10759;51.982;9.232;2023-04-19T00:16:32;101535.19;;;10.32;67.37
21203;BME280;10759;51.982;9.232;2023-04-19T00:19:00;101521.19;;;10.13;67.74
21203;BME280;10759;51.982;9.232;2023-04-19T00:21:30;101557.97;;;10.03;68.42
21203;BME280;10759;51.982;9.232;2023-04-19T00:23:57;101507.44;;;9.83;68.35
21203;BME280;10759;51.982;9.232;2023-04-19T00:26:25;101556.75;;;10.21;67.03
21203;BME280;10759;51.982;9.232;2023-04-19T00:28:55;101555.00;;;9.67;69.35
21203;BME280;10759;51.982;9.232;2023-04-19T00:31:22;101543.31;;;9.72;69.54
21203;BME280;10759;51.982;9.232;2023-04-19T00:33:50;101549.34;;;9.84;68.95
21203;BME280;10759;51.982;9.232;2023-04-19T00:36:18;101539.22;;;10.03;68.57
21203;BME280;10759;51.982;9.232;2023-04-19T00:38:48;101529.59;;;9.92;68.78
21203;BME280;10759;51.982;9.232;2023-04-19T00:41:16;101539.28;;;10.00;69.03
21203;BME280;10759;51.982;9.232;2023-04-19T00:43:44;101527.56;;;10.07;68.72
21203;BME280;10759;51.982;9.232;2023-04-19T00:46:13;101542.16;;;9.88;69.19
21203;BME280;10759;51.982;9.232;2023-04-19T00:48:41;101533.59;;;9.67;70.12
21203;BME280;10759;51.982;9.232;2023-04-19T00:51:11;101512.19;;;9.66;69.43
21203;BME280;10759;51.982;9.232;2023-04-19T00:53:39;101531.75;;;9.70;70.31
21203;BME280;10759;51.982;9.232;2023-04-19T00:56:09;101526.38;;;9.73;69.03
21203;BME280;10759;51.982;9.232;2023-04-19T00:58:38;101524.91;;;9.52;68.96
21203;BME280;10759;51.982;9.232;2023-04-19T01:01:05;101525.75;;;9.55;69.37
21203;BME280;10759;51.982;9.232;2023-04-19T01:03:34;101536.34;;;9.61;69.18
21203;BME280;10759;51.982;9.232;2023-04-19T01:06:03;101526.38;;;9.71;68.52
21203;BME280;10759;51.982;9.232;2023-04-19T01:08:31;101541.94;;;9.46;69.17
21203;BME280;10759;51.982;9.232;2023-04-19T01:10:59;101515.03;;;9.55;67.36
21203;BME280;10759;51.982;9.232;2023-04-19T01:13:28;101532.84;;;9.56;68.44
21203;BME280;10759;51.982;9.232;2023-04-19T01:15:56;101496.66;;;9.32;66.50
21203;BME280;10759;51.982;9.232;2023-04-19T01:18:24;101521.41;;;9.45;67.34
21203;BME280;10759;51.982;9.232;2023-04-19T01:20:58;101516.81;;;9.56;65.95
21203;BME280;10759;51.982;9.232;2023-04-19T01:23:27;101518.75;;;9.45;66.19
21203;BME280;10759;51.982;9.232;2023-04-19T01:25:55;101509.06;;;9.38;66.25
21203;BME280;10759;51.982;9.232;2023-04-19T01:28:23;101476.91;;;9.41;65.37
21203;BME280;10759;51.982;9.232;2023-04-19T01:30:51;101528.44;;;9.54;65.61
21203;BME280;10759;51.982;9.232;2023-04-19T01:33:20;101522.16;;;9.56;63.73
21203;BME280;10759;51.982;9.232;2023-04-19T01:35:48;101528.69;;;9.38;64.88
21203;BME280;10759;51.982;9.232;2023-04-19T01:38:16;101525.00;;;9.44;61.42
21203;BME280;10759;51.982;9.232;2023-04-19T01:40:45;101511.50;;;9.52;58.97
21203;BME280;10759;51.982;9.232;2023-04-19T01:43:16;101515.78;;;9.63;59.94
21203;BME280;10759;51.982;9.232;2023-04-19T01:45:45;101509.53;;;9.64;56.15
21203;BME280;10759;51.982;9.232;2023-04-19T01:48:13;101267.38;;;8.30;55.86
21203;BME280;10759;51.982;9.232;2023-04-19T01:50:40;101507.72;;;9.66;53.30
21203;BME280;10759;51.982;9.232;2023-04-19T01:53:09;101492.63;;;9.62;54.14
21203;BME280;10759;51.982;9.232;2023-04-19T01:55:37;101477.16;;;9.24;53.15
21203;BME280;10759;51.982;9.232;2023-04-19T01:58:06;101494.50;;;9.56;53.57
21203;BME280;10759;51.982;9.232;2023-04-19T02:00:35;101461.75;;;9.40;52.12
21203;BME280;10759;51.982;9.232;2023-04-19T02:03:03;101440.66;;;9.21;51.94
21203;BME280;10759;51.982;9.232;2023-04-19T02:05:31;101478.78;;;9.36;53.17
21203;BME280;10759;51.982;9.232;2023-04-19T02:08:00;101481.25;;;9.48;53.26
21203;BME280;10759;51.982;9.232;2023-04-19T02:10:29;101494.03;;;9.28;52.42
21203;BME280;10759;51.982;9.232;2023-04-19T02:12:57;101498.63;;;9.19;52.12
21203;BME280;10759;51.982;9.232;2023-04-19T02:15:27;101502.41;;;9.03;50.14
21203;BME280;10759;51.982;9.232;2023-04-19T02:17:56;101495.38;;;8.97;50.84
21203;BME280;10759;51.982;9.232;2023-04-19T02:20:25;101483.91;;;8.89;50.61
21203;BME280;10759;51.982;9.232;2023-04-19T02:22:53;101512.38;;;8.92;49.91
21203;BME280;10759;51.982;9.232;2023-04-19T02:25:22;101507.09;;;8.87;50.30
21203;BME280;10759;51.982;9.232;2023-04-19T02:27:50;101515.94;;;8.91;50.89
21203;BME280;10759;51.982;9.232;2023-04-19T02:30:19;101514.41;;;8.73;50.17
21203;BME280;10759;51.982;9.232;2023-04-19T02:32:48;101513.66;;;8.60;50.98
21203;BME280;10759;51.982;9.232;2023-04-19T02:35:16;101516.38;;;8.55;50.87
21203;BME280;10759;51.982;9.232;2023-04-19T02:37:44;101512.75;;;8.64;50.51
21203;BME280;10759;51.982;9.232;2023-04-19T02:40:12;101525.91;;;8.79;50.89
21203;BME280;10759;51.982;9.232;2023-04-19T02:42:40;101507.44;;;8.58;50.96
21203;BME280;10759;51.982;9.232;2023-04-19T02:45:08;101526.06;;;8.66;51.67
21203;BME280;10759;51.982;9.232;2023-04-19T02:47:36;101466.09;;;8.11;51.60
21203;BME280;10759;51.982;9.232;2023-04-19T02:50:07;101519.94;;;8.59;51.95
21203;BME280;10759;51.982;9.232;2023-04-19T02:52:41;101510.16;;;8.55;51.76
21203;BME280;10759;51.982;9.232;2023-04-19T02:55:09;101522.66;;;8.51;51.72
21203;BME280;10759;51.982;9.232;2023-04-19T02:57:37;101526.38;;;8.33;52.84
21203;BME280;10759;51.982;9.232;2023-04-19T03:00:08;101457.50;;;7.80;51.98
21203;BME280;10759;51.982;9.232;2023-04-19T03:02:40;101530.19;;;8.12;51.98
21203;BME280;10759;51.982;9.232;2023-04-19T03:05:11;101525.06;;;7.88;52.11
21203;BME280;10759;51.982;9.232;2023-04-19T03:07:39;101526.19;;;7.61;53.41
21203;BME280;10759;51.982;9.232;2023-04-19T03:10:10;101528.72;;;7.76;53.68
21203;BME280;10759;51.982;9.232;2023-04-19T03:12:38;101513.88;;;7.41;52.91
21203;BME280;10759;51.982;9.232;2023-04-19T03:15:07;101523.44;;;7.68;53.13
21203;BME280;10759;51.982;9.232;2023-04-19T03:17:35;101530.72;;;7.45;52.92
21203;BME280;10759;51.982;9.232;2023-04-19T03:20:05;101524.44;;;7.50;53.00
21203;BME280;10759;51.982;9.232;2023-04-19T03:22:38;101522.69;;;7.51;53.33
21203;BME280;10759;51.982;9.232;2023-04-19T03:25:06;101525.25;;;7.62;53.17
21203;BME280;10759;51.982;9.232;2023-04-19T03:27:39;101513.75;;;7.57;53.13
21203;BME280;10759;51.982;9.232;2023-04-19T03:30:11;101519.16;;;7.46;55.18
21203;BME280;10759;51.982;9.232;2023-04-19T03:32:41;101505.66;;;7.67;53.16
21203;BME280;10759;51.982;9.232;2023-04-19T03:35:11;101522.75;;;7.43;53.59
21203;BME280;10759;51.982;9.232;2023-04-19T03:37:40;101518.22;;;7.51;55.04
21203;BME280;10759;51.982;9.232;2023-04-19T03:40:09;101516.47;;;7.47;54.12
21203;BME280;10759;51.982;9.232;2023-04-19T03:42:37;101482.81;;;7.29;54.77
21203;BME280;10759;51.982;9.232;2023-04-19T03:45:10;101506.72;;;7.45;56.01
21203;BME280;10759;51.982;9.232;2023-04-19T03:47:44;101510.31;;;7.39;54.96
21203;BME280;10759;51.982;9.232;2023-04-19T03:50:12;101493.66;;;7.00;55.84
21203;BME280;10759;51.982;9.232;2023-04-19T03:52:45;101494.50;;;7.08;57.50
21203;BME280;10759;51.982;9.232;2023-04-19T03:55:13;101470.63;;;6.90;56.76
21203;BME280;10759;51.982;9.232;2023-04-19T03:57:41;101506.03;;;7.15;56.51
21203;BME280;10759;51.982;9.232;2023-04-19T04:00:17;101475.00;;;7.00;56.48
21203;BME280;10759;51.982;9.232;2023-04-19T04:02:52;101466.97;;;7.03;57.27
21203;BME280;10759;51.982;9.232;2023-04-19T04:05:21;101497.13;;;7.19;57.41
21203;BME280;10759;51.982;9.232;2023-04-19T04:07:50;101520.09;;;7.39;56.72
21203;BME280;10759;51.982;9.232;2023-04-19T04:10:19;101514.91;;;7.11;57.66
21203;BME280;10759;51.982;9.232;2023-04-19T04:12:47;101506.97;;;7.06;58.65
21203;BME280;10759;51.982;9.232;2023-04-19T04:15:22;101505.13;;;7.18;58.43
21203;BME280;10759;51.982;9.232;2023-04-19T04:17:52;101489.16;;;7.15;58.10
21203;BME280;10759;51.982;9.232;2023-04-19T04:20:20;101510.44;;;7.18;60.22
21203;BME280;10759;51.982;9.232;2023-04-19T04:22:54;101514.94;;;7.09;59.47
21203;BME280;10759;51.982;9.232;2023-04-19T04:25:22;101523.09;;;6.77;59.46
21203;BME280;10759;51.982;9.232;2023-04-19T04:27:52;101523.94;;;6.92;59.81
21203;BME280;10759;51.982;9.232;2023-04-19T04:30:22;101522.13;;;6.97;60.29
21203;BME280;10759;51.982;9.232;2023-04-19T04:32:55;101523.09;;;6.76;61.04
21203;BME280;10759;51.982;9.232;2023-04-19T04:35:25;101524.09;;;6.39;62.57
21203;BME280;10759;51.982;9.232;2023-04-19T04:38:05;101522.38;;;6.18;63.84
21203;BME280;10759;51.982;9.232;2023-04-19T04:40:50;101517.06;;;6.08;64.28
21203;BME280;10759;51.982;9.232;2023-04-19T04:43:19;101533.03;;;6.28;63.82
21203;BME280;10759;51.982;9.232;2023-04-19T04:45:48;101531.19;;;6.43;63.04
21203;BME280;10759;51.982;9.232;2023-04-19T04:48:17;101507.28;;;6.19;63.32
21203;BME280;10759;51.982;9.232;2023-04-19T04:50:45;101543.59;;;6.49;64.13
21203;BME280;10759;51.982;9.232;2023-04-19T04:53:14;101546.19;;;6.74;63.09
21203;BME280;10759;51.982;9.232;2023-04-19T04:55:44;101546.13;;;6.92;62.12
21203;BME280;10759;51.982;9.232;2023-04-19T04:58:13;101545.19;;;7.04;62.11
21203;BME280;10759;51.982;9.232;2023-04-19T05:00:57;101530.09;;;7.04;63.24
21203;BME280;10759;51.982;9.232;2023-04-19T05:03:26;101542.47;;;7.15;65.21
21203;BME280;10759;51.982;9.232;2023-04-19T05:05:57;101522.06;;;7.01;65.89
21203;BME280;10759;51.982;9.232;2023-04-19T05:08:27;101501.72;;;6.90;63.94
21203;BME280;10759;51.982;9.232;2023-04-19T05:11:06;101537.16;;;7.12;63.00
21203;BME280;10759;51.982;9.232;2023-04-19T05:13:36;101554.88;;;7.16;63.11
21203;BME280;10759;51.982;9.232;2023-04-19T05:16:05;101553.28;;;6.81;64.54
21203;BME280;10759;51.982;9.232;2023-04-19T05:18:33;101551.63;;;6.37;65.45
21203;BME280;10759;51.982;9.232;2023-04-19T05:21:01;101548.91;;;6.61;65.23
21203;BME280;10759;51.982;9.232;2023-04-19T05:23:32;101553.22;;;6.99;65.38
21203;BME280;10759;51.982;9.232;2023-04-19T05:26:00;101534.38;;;7.28;65.33
21203;BME280;10759;51.982;9.232;2023-04-19T05:28:28;101543.13;;;7.53;63.90
21203;BME280;10759;51.982;9.232;2023-04-19T05:31:03;101540.84;;;6.77;64.94
21203;BME280;10759;51.982;9.232;2023-04-19T05:33:40;101541.84;;;6.43;66.99
21203;BME280;10759;51.982;9.232;2023-04-19T05:36:09;101542.72;;;6.53;67.51
21203;BME280;10759;51.982;9.232;2023-04-19T05:38:38;101531.25;;;6.22;68.68
21203;BME280;10759;51.982;9.232;2023-04-19T05:41:06;101539.16;;;6.54;68.12
21203;BME280;10759;51.982;9.232;2023-04-19T05:43:34;101468.25;;;6.15;67.87
21203;BME280;10759;51.982;9.232;2023-04-19T05:46:03;101526.75;;;6.39;67.90
21203;BME280;10759;51.982;9.232;2023-04-19T05:48:31;101508.16;;;6.22;67.93
21203;BME280;10759;51.982;9.232;2023-04-19T05:51:25;101528.47;;;6.70;68.11
21203;BME280;10759;51.982;9.232;2023-04-19T05:54:08;101537.19;;;7.02;66.16
21203;BME280;10759;51.982;9.232;2023-04-19T05:56:39;101515.19;;;6.53;68.08
21203;BME280;10759;51.982;9.232;2023-04-19T05:59:07;101541.75;;;6.73;66.68
21203;BME280;10759;51.982;9.232;2023-04-19T06:01:37;101535.50;;;6.84;66.99
21203;BME280;10759;51.982;9.232;2023-04-19T06:04:05;101524.72;;;7.12;66.25
21203;BME280;10759;51.982;9.232;2023-04-19T06:06:33;101540.59;;;7.29;66.55
21203;BME280;10759;51.982;9.232;2023-04-19T06:09:04;101520.84;;;7.61;66.16
21203;BME280;10759;51.982;9.232;2023-04-19T06:11:34;101544.47;;;8.04;64.32
21203;BME280;10759;51.982;9.232;2023-04-19T06:14:15;101543.75;;;7.85;63.79
21203;BME280;10759;51.982;9.232;2023-04-19T06:16:44;101544.69;;;7.79;65.23
21203;BME280;10759;51.982;9.232;2023-04-19T06:19:12;101529.56;;;7.81;63.91
21203;BME280;10759;51.982;9.232;2023-04-19T06:21:40;101507.28;;;7.85;63.05
21203;BME280;10759;51.982;9.232;2023-04-19T06:24:08;101529.19;;;8.21;63.54
21203;BME280;10759;51.982;9.232;2023-04-19T06:26:37;101539.09;;;8.07;61.70
21203;BME280;10759;51.982;9.232;2023-04-19T06:29:05;101514.16;;;8.09;63.34
21203;BME280;10759;51.982;9.232;2023-04-19T06:31:33;101538.34;;;7.92;62.01
21203;BME280;10759;51.982;9.232;2023-04-19T06:34:01;101536.47;;;8.04;61.46
21203;BME280;10759;51.982;9.232;2023-04-19T06:36:29;101533.91;;;7.90;60.42
21203;BME280;10759;51.982;9.232;2023-04-19T06:38:57;101532.31;;;7.69;61.83
21203;BME280;10759;51.982;9.232;2023-04-19T06:41:25;101512.53;;;7.98;62.64
21203;BME280;10759;51.982;9.232;2023-04-19T06:43:54;101530.84;;;8.34;62.18
21203;BME280;10759;51.982;9.232;2023-04-19T06:46:22;101529.69;;;8.60;62.06
21203;BME280;10759;51.982;9.232;2023-04-19T06:48:50;101534.13;;;8.64;59.77
21203;BME280;10759;51.982;9.232;2023-04-19T06:51:17;101547.75;;;8.35;58.45
21203;BME280;10759;51.982;9.232;2023-04-19T06:53:45;101520.91;;;8.49;61.14
21203;BME280;10759;51.982;9.232;2023-04-19T06:56:13;101537.16;;;9.05;57.24
21203;BME280;10759;51.982;9.232;2023-04-19T06:58:41;101543.56;;;8.93;56.27
21203;BME280;10759;51.982;9.232;2023-04-19T07:01:10;101538.34;;;8.82;55.98
21203;BME280;10759;51.982;9.232;2023-04-19T07:03:38;101537.69;;;8.63;57.12
21203;BME280;10759;51.982;9.232;2023-04-19T07:06:07;101534.06;;;8.67;58.53
21203;BME280;10759;51.982;9.232;2023-04-19T07:08:35;101522.75;;;9.16;57.18
21203;BME280;10759;51.982;9.232;2023-04-19T07:11:15;101515.81;;;9.62;54.61
21203;BME280;10759;51.982;9.232;2023-04-19T07:13:46;101520.91;;;9.79;53.40
21203;BME280;10759;51.982;9.232;2023-04-19T07:16:16;101518.56;;;9.57;53.54
21203;BME280;10759;51.982;9.232;2023-04-19T07:18:43;101519.34;;;9.64;55.00
21203;BME280;10759;51.982;9.232;2023-04-19T07:21:11;101522.28;;;10.03;53.72
21203;BME280;10759;51.982;9.232;2023-04-19T07:23:39;101516.44;;;9.20;51.22
21203;BME280;10759;51.982;9.232;2023-04-19T07:26:07;101507.81;;;9.01;51.03
21203;BME280;10759;51.982;9.232;2023-04-19T07:28:38;101503.47;;;9.53;50.58
21203;BME280;10759;51.982;9.232;2023-04-19T07:31:06;101487.16;;;9.68;50.66
21203;BME280;10759;51.982;9.232;2023-04-19T07:33:35;101504.28;;;9.60;50.15
21203;BME280;10759;51.982;9.232;2023-04-19T07:36:03;101474.84;;;8.98;50.85
21203;BME280;10759;51.982;9.232;2023-04-19T07:38:32;101498.63;;;9.18;52.18
21203;BME280;10759;51.982;9.232;2023-04-19T07:41:00;101474.66;;;9.13;51.87
21203;BME280;10759;51.982;9.232;2023-04-19T07:43:28;101486.63;;;9.46;51.87
21203;BME280;10759;51.982;9.232;2023-04-19T07:45:56;101489.59;;;9.28;51.61
21203;BME280;10759;51.982;9.232;2023-04-19T07:48:24;101347.66;;;8.18;52.82
21203;BME280;10759;51.982;9.232;2023-04-19T07:50:53;101478.72;;;9.37;52.90
21203;BME280;10759;51.982;9.232;2023-04-19T07:53:21;101476.97;;;9.36;51.76
21203;BME280;10759;51.982;9.232;2023-04-19T07:55:49;101478.53;;;9.51;52.54
21203;BME280;10759;51.982;9.232;2023-04-19T07:58:17;101473.38;;;9.37;52.20
21203;BME280;10759;51.982;9.232;2023-04-19T08:00:45;101491.22;;;9.93;51.14
21203;BME280;10759;51.982;9.232;2023-04-19T08:03:13;101475.88;;;10.02;50.05
21203;BME280;10759;51.982;9.232;2023-04-19T08:05:41;101476.44;;;10.20;49.98
21203;BME280;10759;51.982;9.232;2023-04-19T08:08:10;101470.53;;;10.01;48.94
21203;BME280;10759;51.982;9.232;2023-04-19T08:10:38;101460.38;;;10.20;48.71
21203;BME280;10759;51.982;9.232;2023-04-19T08:13:06;101463.06;;;10.65;48.84
21203;BME280;10759;51.982;9.232;2023-04-19T08:15:34;101430.50;;;10.41;47.71
21203;BME280;10759;51.982;9.232;2023-04-19T08:18:23;101434.94;;;10.83;46.64
21203;BME280;10759;51.982;9.232;2023-04-19T08:20:51;101435.81;;;10.43;44.15
21203;BME280;10759;51.982;9.232;2023-04-19T08:23:21;101457.00;;;10.55;43.60
21203;BME280;10759;51.982;9.232;2023-04-19T08:26:00;101457.63;;;10.68;43.97
21203;BME280;10759;51.982;9.232;2023-04-19T08:28:28;101371.88;;;10.23;40.00
21203;BME280;10759;51.982;9.232;2023-04-19T08:30:57;101464.94;;;10.60;40.44
21203;BME280;10759;51.982;9.232;2023-04-19T08:33:25;101468.47;;;10.62;39.91
21203;BME280;10759;51.982;9.232;2023-04-19T08:35:55;101462.97;;;10.68;39.77
21203;BME280;10759;51.982;9.232;2023-04-19T08:38:24;101461.31;;;10.62;38.14
21203;BME280;10759;51.982;9.232;2023-04-19T08:40:53;101459.91;;;10.88;39.93
21203;BME280;10759;51.982;9.232;2023-04-19T08:43:24;101447.41;;;10.85;40.11
21203;BME280;10759;51.982;9.232;2023-04-19T08:45:54;101449.47;;;10.74;41.61
21203;BME280;10759;51.982;9.232;2023-04-19T08:48:24;101454.06;;;11.08;40.76
21203;BME280;10759;51.982;9.232;2023-04-19T08:50:53;101452.84;;;10.82;42.06
21203;BME280;10759;51.982;9.232;2023-04-19T08:53:33;101415.63;;;10.68;41.63
21203;BME280;10759;51.982;9.232;2023-04-19T08:56:02;101442.97;;;11.23;41.08
21203;BME280;10759;51.982;9.232;2023-04-19T08:58:33;101440.78;;;11.03;38.64
21203;BME280;10759;51.982;9.232;2023-04-19T09:01:04;101429.97;;;11.06;39.21
21203;BME280;10759;51.982;9.232;2023-04-19T09:03:32;101439.09;;;10.98;39.17
21203;BME280;10759;51.982;9.232;2023-04-19T09:06:16;101438.38;;;10.89;38.07
21203;BME280;10759;51.982;9.232;2023-04-19T09:08:46;101447.13;;;10.59;36.14
21203;BME280;10759;51.982;9.232;2023-04-19T09:11:14;101453.84;;;10.78;36.45
21203;BME280;10759;51.982;9.232;2023-04-19T09:13:42;101445.00;;;11.13;36.68
21203;BME280;10759;51.982;9.232;2023-04-19T09:16:23;101381.28;;;10.45;37.43
21203;BME280;10759;51.982;9.232;2023-04-19T09:18:56;101358.38;;;10.71;37.16
21203;BME280;10759;51.982;9.232;2023-04-19T09:21:45;101448.78;;;10.64;36.05
21203;BME280;10759;51.982;9.232;2023-04-19T09:24:14;101442.22;;;11.18;37.67
21203;BME280;10759;51.982;9.232;2023-04-19T09:26:52;101436.31;;;11.02;37.06
21203;BME280;10759;51.982;9.232;2023-04-19T09:29:21;101435.47;;;11.37;37.54
21203;BME280;10759;51.982;9.232;2023-04-19T09:31:57;101436.56;;;10.91;36.57
21203;BME280;10759;51.982;9.232;2023-04-19T09:34:25;101419.97;;;10.74;37.25
21203;BME280;10759;51.982;9.232;2023-04-19T09:36:56;101437.22;;;11.03;37.76
21203;BME280;10759;51.982;9.232;2023-04-19T09:39:41;101433.97;;;10.88;37.55
21203;BME280;10759;51.982;9.232;2023-04-19T09:42:09;101442.59;;;11.38;38.31
21203;BME280;10759;51.982;9.232;2023-04-19T09:44:37;101273.09;;;10.49;38.91
21203;BME280;10759;51.982;9.232;2023-04-19T09:47:20;101425.66;;;11.36;37.67
21203;BME280;10759;51.982;9.232;2023-04-19T09:50:06;101417.25;;;10.76;38.21
21203;BME280;10759;51.982;9.232;2023-04-19T09:52:50;101421.75;;;11.50;37.98
21203;BME280;10759;51.982;9.232;2023-04-19T09:55:20;101400.00;;;11.60;38.60
21203;BME280;10759;51.982;9.232;2023-04-19T09:57:54;101199.25;;;9.97;38.04
21203;BME280;10759;51.982;9.232;2023-04-19T10:00:22;101412.81;;;11.12;37.28
21203;BME280;10759;51.982;9.232;2023-04-19T10:02:51;101397.16;;;11.67;37.39
21203;BME280;10759;51.982;9.232;2023-04-19T10:05:24;101394.59;;;11.62;37.36
21203;BME280;10759;51.982;9.232;2023-04-19T10:07:52;101368.97;;;11.49;38.21
21203;BME280;10759;51.982;9.232;2023-04-19T10:10:28;101400.88;;;11.95;39.48
21203;BME280;10759;51.982;9.232;2023-04-19T10:13:02;101385.41;;;11.36;38.24
21203;BME280;10759;51.982;9.232;2023-04-19T10:15:45;101317.97;;;11.49;39.20
21203;BME280;10759;51.982;9.232;2023-04-19T10:18:21;101354.66;;;11.82;39.03
21203;BME280;10759;51.982;9.232;2023-04-19T10:20:53;101374.00;;;12.28;39.52
21203;BME280;10759;51.982;9.232;2023-04-19T10:23:22;101364.53;;;12.13;38.32
21203;BME280;10759;51.982;9.232;2023-04-19T10:25:54;101379.28;;;12.00;37.83
21203;BME280;10759;51.982;9.232;2023-04-19T10:28:23;101360.81;;;11.88;38.53
21203;BME280;10759;51.982;9.232;2023-04-19T10:30:52;101360.34;;;12.05;37.86
21203;BME280;10759;51.982;9.232;2023-04-19T10:33:24;101318.94;;;11.46;36.97
21203;BME280;10759;51.982;9.232;2023-04-19T10:35:54;101363.50;;;11.88;36.37
21203;BME280;10759;51.982;9.232;2023-04-19T10:38:36;101363.59;;;11.49;36.71
21203;BME280;10759;51.982;9.232;2023-04-19T10:41:05;101354.69;;;11.81;37.56
21203;BME280;10759;51.982;9.232;2023-04-19T10:43:44;101360.81;;;11.53;36.34
21203;BME280;10759;51.982;9.232;2023-04-19T10:46:14;101360.56;;;11.63;36.03
21203;BME280;10759;51.982;9.232;2023-04-19T10:48:50;101217.25;;;11.35;36.34
21203;BME280;10759;51.982;9.232;2023-04-19T10:51:25;101354.56;;;11.86;35.68
21203;BME280;10759;51.982;9.232;2023-04-19T10:53:55;101353.56;;;11.57;35.51
21203;BME280;10759;51.982;9.232;2023-04-19T10:56:56;101344.53;;;11.94;35.24
21203;BME280;10759;51.982;9.232;2023-04-19T10:59:29;101300.91;;;11.84;35.51
21203;BME280;10759;51.982;9.232;2023-04-19T11:01:58;101324.38;;;11.77;35.15
21203;BME280;10759;51.982;9.232;2023-04-19T11:04:59;101323.50;;;12.08;35.45
21203;BME280;10759;51.982;9.232;2023-04-19T11:07:28;101322.63;;;12.08;34.82
21203;BME280;10759;51.982;9.232;2023-04-19T11:10:03;101306.94;;;12.23;34.13
21203;BME280;10759;51.982;9.232;2023-04-19T11:12:33;101295.34;;;12.51;34.61
21203;BME280;10759;51.982;9.232;2023-04-19T11:15:01;101279.84;;;12.59;34.09
21203;BME280;10759;51.982;9.232;2023-04-19T11:17:30;101285.31;;;12.56;35.14
21203;BME280;10759;51.982;9.232;2023-04-19T11:19:59;101269.38;;;12.22;34.81
21203;BME280;10759;51.982;9.232;2023-04-19T11:22:31;101285.09;;;12.34;33.69
21203;BME280;10759;51.982;9.232;2023-04-19T11:25:07;101276.28;;;12.31;34.59
21203;BME280;10759;51.982;9.232;2023-04-19T11:27:37;101267.19;;;12.63;34.36
21203;BME280;10759;51.982;9.232;2023-04-19T11:30:07;101208.47;;;12.49;33.67
21203;BME280;10759;51.982;9.232;2023-04-19T11:32:36;101259.75;;;12.71;35.19
21203;BME280;10759;51.982;9.232;2023-04-19T11:35:06;101251.84;;;12.65;34.66
21203;BME280;10759;51.982;9.232;2023-04-19T11:37:35;101239.38;;;12.62;34.63
21203;BME280;10759;51.982;9.232;2023-04-19T11:40:05;101239.38;;;12.62;34.29
21203;BME280;10759;51.982;9.232;2023-04-19T11:42:33;101229.94;;;13.04;34.68
21203;BME280;10759;51.982;9.232;2023-04-19T11:45:03;101226.38;;;13.03;36.16
21203;BME280;10759;51.982;9.232;2023-04-19T11:47:46;101199.28;;;12.83;34.45
21203;BME280;10759;51.982;9.232;2023-04-19T11:50:30;101232.50;;;12.55;33.96
21203;BME280;10759;51.982;9.232;2023-04-19T11:52:59;101211.69;;;12.87;33.32
21203;BME280;10759;51.982;9.232;2023-04-19T11:55:31;101222.13;;;12.96;34.46
21203;BME280;10759;51.982;9.232;2023-04-19T11:58:00;101215.72;;;12.74;33.94
21203;BME280;10759;51.982;9.232;2023-04-19T12:00:29;101203.78;;;12.56;33.83
21203;BME280;10759;51.982;9.232;2023-04-19T12:02:58;101186.09;;;12.75;34.36
21203;BME280;10759;51.982;9.232;2023-04-19T12:05:27;101205.34;;;13.15;34.54
21203;BME280;10759;51.982;9.232;2023-04-19T12:07:59;101198.63;;;13.01;33.39
21203;BME280;10759;51.982;9.232;2023-04-19T12:10:27;101196.16;;;12.95;32.43
21203;BME280;10759;51.982;9.232;2023-04-19T12:12:56;101188.16;;;13.19;31.59
21203;BME280;10759;51.982;9.232;2023-04-19T12:15:43;101197.47;;;13.35;32.74
21203;BME280;10759;51.982;9.232;2023-04-19T12:18:11;101086.75;;;12.71;32.61
21203;BME280;10759;51.982;9.232;2023-04-19T12:20:43;101152.41;;;13.15;31.44
21203;BME280;10759;51.982;9.232;2023-04-19T12:23:12;101171.84;;;13.48;30.38
21203;BME280;10759;51.982;9.232;2023-04-19T12:25:42;101168.69;;;13.61;30.31
21203;BME280;10759;51.982;9.232;2023-04-19T12:28:10;101161.00;;;13.50;30.66
21203;BME280;10759;51.982;9.232;2023-04-19T12:30:38;101152.00;;;13.74;29.69
21203;BME280;10759;51.982;9.232;2023-04-19T12:33:08;101153.13;;;13.69;30.00
21203;BME280;10759;51.982;9.232;2023-04-19T12:35:36;101171.53;;;13.32;29.31
21203;BME280;10759;51.982;9.232;2023-04-19T12:38:04;101160.34;;;13.43;29.41
21203;BME280;10759;51.982;9.232;2023-04-19T12:40:32;101124.78;;;13.59;29.10
21203;BME280;10759;51.982;9.232;2023-04-19T12:43:00;101158.69;;;13.64;28.56
21203;BME280;10759;51.982;9.232;2023-04-19T12:45:28;101147.75;;;13.69;29.68
21203;BME280;10759;51.982;9.232;2023-04-19T12:47:56;101148.22;;;13.57;29.39
21203;BME280;10759;51.982;9.232;2023-04-19T12:50:25;101151.88;;;13.78;29.26
21203;BME280;10759;51.982;9.232;2023-04-19T12:52:53;101133.66;;;13.61;28.63
21203;BME280;10759;51.982;9.232;2023-04-19T12:55:21;101046.22;;;13.24;29.16
21203;BME280;10759;51.982;9.232;2023-04-19T12:57:49;101138.22;;;13.82;29.51
21203;BME280;10759;51.982;9.232;2023-04-19T13:00:17;101130.91;;;13.86;29.84
21203;BME280;10759;51.982;9.232;2023-04-19T13:02:45;101129.59;;;13.96;29.86
21203;BME280;10759;51.982;9.232;2023-04-19T13:05:14;101132.66;;;13.87;28.76
21203;BME280;10759;51.982;9.232;2023-04-19T13:07:43;101131.19;;;13.78;29.23
21203;BME280;10759;51.982;9.232;2023-04-19T13:10:11;101134.34;;;13.89;29.70
21203;BME280;10759;51.982;9.232;2023-04-19T13:12:39;101100.94;;;13.71;30.10